createdAt,value
2022-10-07T00:01:12.186Z,3.20
2022-10-07T00:03:42.193Z,3.60
2022-10-07T00:06:14.564Z,3.10
2022-10-07T00:08:45.242Z,3.03
2022-10-07T00:11:16.274Z,3.00
2022-10-07T00:13:46.873Z,3.07
2022-10-07T00:16:17.769Z,3.33
2022-10-07T00:18:48.158Z,2.90
2022-10-07T00:21:18.636Z,3.00
2022-10-07T00:23:48.740Z,3.17
2022-10-07T00:26:19.603Z,3.20
2022-10-07T00:28:49.616Z,2.63
2022-10-07T00:31:22.533Z,2.43
2022-10-07T00:33:54.710Z,3.70
2022-10-07T00:36:25.957Z,3.53
2022-10-07T00:38:56.616Z,2.87
2022-10-07T00:41:28.128Z,2.40
2022-10-07T00:43:57.318Z,2.90
2022-10-07T00:46:32.383Z,3.40
2022-10-07T00:49:05.171Z,2.60
2022-10-07T00:51:35.309Z,3.03
2022-10-07T00:54:05.537Z,3.13
2022-10-07T00:56:34.911Z,2.90
2022-10-07T00:59:03.430Z,2.50
2022-10-07T01:01:31.619Z,2.80
2022-10-07T01:04:01.149Z,3.10
2022-10-07T01:06:30.251Z,2.73
2022-10-07T01:08:58.565Z,3.80
2022-10-07T01:11:43.779Z,3.10
2022-10-07T01:14:20.794Z,3.70
2022-10-07T01:16:58.636Z,3.53
2022-10-07T01:20:19.808Z,3.07
2022-10-07T01:23:06.176Z,3.60
2022-10-07T01:25:55.839Z,3.73
2022-10-07T01:28:32.379Z,3.43
2022-10-07T01:31:05.153Z,3.53
2022-10-07T01:33:35.240Z,4.17
2022-10-07T01:36:08.252Z,4.33
2022-10-07T01:38:38.660Z,3.77
2022-10-07T01:41:11.655Z,3.23
2022-10-07T01:43:43.036Z,3.33
2022-10-07T01:46:16.407Z,3.50
2022-10-07T01:48:47.027Z,3.33
2022-10-07T01:51:17.189Z,3.30
2022-10-07T01:54:00.059Z,3.60
2022-10-07T01:56:46.799Z,2.40
2022-10-07T01:59:50.530Z,2.50
2022-10-07T02:02:30.660Z,3.20
2022-10-07T02:05:12.596Z,3.10
2022-10-07T02:07:53.730Z,2.50
2022-10-07T02:10:28.146Z,2.93
2022-10-07T02:13:07.337Z,2.17
2022-10-07T02:15:45.445Z,2.63
2022-10-07T02:18:17.951Z,2.20
2022-10-07T02:20:51.827Z,2.93
2022-10-07T02:23:25.080Z,2.73
2022-10-07T02:25:55.240Z,2.23
2022-10-07T02:28:26.033Z,2.00
2022-10-07T02:31:01.621Z,2.90
2022-10-07T02:33:33.492Z,2.10
2022-10-07T02:36:08.643Z,2.17
2022-10-07T02:38:38.058Z,3.00
2022-10-07T02:41:12.820Z,2.50
2022-10-07T02:43:48.581Z,2.47
2022-10-07T02:46:23.462Z,3.13
2022-10-07T02:48:58.783Z,2.80
2022-10-07T02:51:33.597Z,2.80
2022-10-07T02:54:04.958Z,3.03
2022-10-07T02:56:37.664Z,1.90
2022-10-07T02:59:09.444Z,2.33
2022-10-07T03:01:45.334Z,2.27
2022-10-07T03:04:21.287Z,2.80
2022-10-07T03:06:52.943Z,2.47
2022-10-07T03:09:26.765Z,2.97
2022-10-07T03:11:55.945Z,2.80
2022-10-07T03:14:24.838Z,3.07
2022-10-07T03:16:54.560Z,2.33
2022-10-07T03:19:23.856Z,2.50
2022-10-07T03:22:25.281Z,2.57
2022-10-07T03:24:54.600Z,2.63
2022-10-07T03:27:22.775Z,2.43
2022-10-07T03:29:51.585Z,1.87
2022-10-07T03:32:21.135Z,2.33
2022-10-07T03:34:49.327Z,2.60
2022-10-07T03:37:17.526Z,2.50
2022-10-07T03:39:45.886Z,2.40
2022-10-07T03:42:14.369Z,2.57
2022-10-07T03:44:42.572Z,2.70
2022-10-07T03:47:14.191Z,2.73
2022-10-07T03:49:43.845Z,2.57
2022-10-07T03:52:12.511Z,2.77
2022-10-07T03:54:40.724Z,3.33
2022-10-07T03:57:29.264Z,2.90
2022-10-07T03:59:59.113Z,2.90
2022-10-07T04:02:27.248Z,3.30
2022-10-07T04:04:58.274Z,2.73
2022-10-07T04:07:26.526Z,3.53
2022-10-07T04:09:55.365Z,2.50
2022-10-07T04:12:23.545Z,2.80
2022-10-07T04:14:51.688Z,2.47
2022-10-07T04:17:19.949Z,2.80
2022-10-07T04:19:48.003Z,2.60
2022-10-07T04:22:19.056Z,3.07
2022-10-07T04:25:07.367Z,2.47
2022-10-07T04:27:51.296Z,3.23
2022-10-07T04:30:21.025Z,3.53
2022-10-07T04:32:50.748Z,2.90
2022-10-07T04:35:23.620Z,3.43
2022-10-07T04:37:56.268Z,3.13
2022-10-07T04:40:27.435Z,2.67
2022-10-07T04:43:14.111Z,2.60
2022-10-07T04:45:42.644Z,2.80
2022-10-07T04:48:11.365Z,3.27
2022-10-07T04:50:40.323Z,3.20
2022-10-07T04:53:14.164Z,3.10
2022-10-07T04:55:46.362Z,3.40
2022-10-07T04:58:16.021Z,2.77
2022-10-07T05:00:46.870Z,2.60
2022-10-07T05:03:17.604Z,2.20
2022-10-07T05:05:49.110Z,3.40
2022-10-07T05:08:21.558Z,2.77
2022-10-07T05:10:49.763Z,2.87
2022-10-07T05:13:18.217Z,2.70
2022-10-07T05:15:52.504Z,2.70
2022-10-07T05:18:22.959Z,2.10
2022-10-07T05:20:52.278Z,2.97
2022-10-07T05:23:28.424Z,3.00
2022-10-07T05:26:01.801Z,2.30
2022-10-07T05:28:31.688Z,3.17
2022-10-07T05:31:05.849Z,2.80
2022-10-07T05:33:34.996Z,2.90
2022-10-07T05:36:05.581Z,2.90
2022-10-07T05:38:36.769Z,2.57
2022-10-07T05:41:08.223Z,2.60
2022-10-07T05:43:42.229Z,2.33
2022-10-07T05:46:16.317Z,3.03
2022-10-07T05:48:51.444Z,2.10
2022-10-07T05:51:22.660Z,3.20
2022-10-07T05:53:55.546Z,3.60
2022-10-07T05:56:26.118Z,2.70
2022-10-07T05:58:57.220Z,2.57
2022-10-07T06:01:28.380Z,2.53
2022-10-07T06:03:59.468Z,2.53
2022-10-07T06:06:31.031Z,2.73
2022-10-07T06:09:17.612Z,3.23
2022-10-07T06:12:03.628Z,2.50
2022-10-07T06:14:33.552Z,2.33
2022-10-07T06:17:01.981Z,3.00
2022-10-07T06:19:30.680Z,2.40
2022-10-07T06:22:02.481Z,2.57
2022-10-07T06:24:33.802Z,3.43
2022-10-07T06:27:03.196Z,2.80
2022-10-07T06:29:32.234Z,2.97
2022-10-07T06:32:01.167Z,2.43
2022-10-07T06:34:30.708Z,2.70
2022-10-07T06:36:58.796Z,2.80
2022-10-07T06:39:27.647Z,2.80
2022-10-07T06:41:57.134Z,2.70
2022-10-07T06:44:45.481Z,2.47
2022-10-07T06:47:17.760Z,3.10
2022-10-07T06:49:47.561Z,2.77
2022-10-07T06:52:15.727Z,3.10
2022-10-07T06:54:44.178Z,3.37
2022-10-07T06:57:43.577Z,3.50
2022-10-07T07:00:04.923Z,3.20
2022-10-07T07:02:34.832Z,2.80
2022-10-07T07:05:04.923Z,3.40
2022-10-07T07:07:33.447Z,3.23
2022-10-07T07:10:01.987Z,3.60
2022-10-07T07:12:33.221Z,4.20
2022-10-07T07:15:01.424Z,3.73
2022-10-07T07:17:29.887Z,2.93
2022-10-07T07:19:58.929Z,2.93
2022-10-07T07:22:27.055Z,2.50
2022-10-07T07:24:55.225Z,3.60
2022-10-07T07:27:23.611Z,3.13
2022-10-07T07:29:53.109Z,2.73
2022-10-07T07:32:21.790Z,3.10
2022-10-07T07:34:50.300Z,3.70
2022-10-07T07:37:23.148Z,3.53
2022-10-07T07:39:54.339Z,2.87
2022-10-07T07:42:22.999Z,3.10
2022-10-07T07:44:52.415Z,3.40
2022-10-07T07:47:22.155Z,2.63
2022-10-07T07:49:51.516Z,2.90
2022-10-07T07:52:26.303Z,4.27
2022-10-07T07:54:58.849Z,3.30
2022-10-07T07:57:28.593Z,2.90
2022-10-07T08:00:00.952Z,2.37
2022-10-07T08:02:31.026Z,2.70
2022-10-07T08:04:59.574Z,3.10
2022-10-07T08:07:27.959Z,4.13
2022-10-07T08:09:56.529Z,3.10
2022-10-07T08:12:24.835Z,3.50
2022-10-07T08:14:55.393Z,4.13
2022-10-07T08:17:25.193Z,3.70
2022-10-07T08:19:56.150Z,3.57
2022-10-07T08:22:24.752Z,3.50
2022-10-07T08:24:53.952Z,3.07
2022-10-07T08:27:23.601Z,3.60
2022-10-07T08:29:51.911Z,3.00
2022-10-07T08:32:20.060Z,3.43
2022-10-07T08:34:49.531Z,2.60
2022-10-07T08:37:17.643Z,2.53
2022-10-07T08:39:45.683Z,2.33
2022-10-07T08:42:24.546Z,2.40
2022-10-07T08:44:53.237Z,2.70
2022-10-07T08:47:30.348Z,2.43
2022-10-07T08:50:08.046Z,2.07
2022-10-07T08:52:48.622Z,2.63
2022-10-07T08:55:21.995Z,1.60
2022-10-07T08:58:24.256Z,2.23
2022-10-07T09:01:01.125Z,1.70
2022-10-07T09:03:41.617Z,2.10
2022-10-07T09:06:14.787Z,1.83
2022-10-07T09:08:46.634Z,2.47
2022-10-07T09:11:25.499Z,1.70
2022-10-07T09:14:00.726Z,1.97
2022-10-07T09:16:33.982Z,2.33
2022-10-07T09:19:04.416Z,2.43
2022-10-07T09:21:41.440Z,2.00
2022-10-07T09:24:21.263Z,3.80
2022-10-07T09:26:49.711Z,2.80
2022-10-07T09:29:22.784Z,1.50
2022-10-07T09:31:52.316Z,2.10
2022-10-07T09:34:25.073Z,2.40
2022-10-07T09:37:23.398Z,1.33
2022-10-07T09:39:53.860Z,2.30
2022-10-07T09:42:37.408Z,2.27
2022-10-07T09:45:20.605Z,1.57
2022-10-07T09:47:53.499Z,1.60
2022-10-07T09:50:37.457Z,1.50
2022-10-07T09:53:18.868Z,1.13
2022-10-07T09:55:47.657Z,2.10
2022-10-07T09:58:22.218Z,1.60
2022-10-07T10:00:52.843Z,1.67
2022-10-07T10:03:21.714Z,1.23
2022-10-07T10:05:57.510Z,1.50
2022-10-07T10:08:31.221Z,1.40
2022-10-07T10:11:01.956Z,1.20
2022-10-07T10:13:34.155Z,1.63
2022-10-07T10:16:03.790Z,1.50
2022-10-07T10:18:39.500Z,1.43
2022-10-07T10:21:22.344Z,1.20
2022-10-07T10:23:54.352Z,1.63
2022-10-07T10:26:50.615Z,1.60
2022-10-07T10:29:44.268Z,1.60
2022-10-07T10:32:50.896Z,1.30
2022-10-07T10:35:26.967Z,1.50
2022-10-07T10:38:14.195Z,1.40
2022-10-07T10:40:48.982Z,1.70
2022-10-07T10:43:28.006Z,1.47
2022-10-07T10:46:17.746Z,1.73
2022-10-07T10:48:54.879Z,1.70
2022-10-07T10:51:40.874Z,2.20
2022-10-07T10:54:26.240Z,1.20
2022-10-07T10:57:03.341Z,1.70
2022-10-07T10:59:59.718Z,1.37
2022-10-07T11:02:45.556Z,1.57
2022-10-07T11:05:17.648Z,1.50
2022-10-07T11:07:49.037Z,1.93
2022-10-07T11:10:22.990Z,1.50
2022-10-07T11:12:56.860Z,1.60
2022-10-07T11:15:31.535Z,1.40
2022-10-07T11:18:06.670Z,1.80
2022-10-07T11:20:43.748Z,1.90
2022-10-07T11:23:23.914Z,1.90
2022-10-07T11:25:58.253Z,1.90
2022-10-07T11:28:30.581Z,1.50
2022-10-07T11:31:06.277Z,1.90
2022-10-07T11:33:44.238Z,1.70
2022-10-07T11:36:17.459Z,1.67
2022-10-07T11:38:46.700Z,1.70
2022-10-07T11:41:23.674Z,2.30
2022-10-07T11:43:56.379Z,1.73
2022-10-07T11:46:28.578Z,1.60
2022-10-07T11:49:03.888Z,1.77
2022-10-07T11:51:37.047Z,2.30
2022-10-07T11:54:09.328Z,2.83
2022-10-07T11:56:45.980Z,2.40
2022-10-07T11:59:34.404Z,3.13
2022-10-07T12:02:05.075Z,2.50
2022-10-07T12:04:41.911Z,2.87
2022-10-07T12:07:58.012Z,3.00
2022-10-07T12:10:32.428Z,2.50
2022-10-07T12:13:42.085Z,3.47
2022-10-07T12:16:48.116Z,3.00
2022-10-07T12:19:23.336Z,3.60
2022-10-07T12:22:22.055Z,3.13
2022-10-07T12:25:40.232Z,3.37
2022-10-07T12:28:16.540Z,3.30
2022-10-07T12:30:54.062Z,2.80
2022-10-07T12:33:34.513Z,3.40
2022-10-07T12:36:27.679Z,3.27
2022-10-07T12:39:42.668Z,3.30
2022-10-07T12:42:14.608Z,3.77
2022-10-07T12:44:51.204Z,2.97
2022-10-07T12:47:25.843Z,3.63
2022-10-07T12:49:59.477Z,4.20
2022-10-07T12:52:44.095Z,3.10
2022-10-07T12:55:19.324Z,3.43
2022-10-07T12:57:52.781Z,3.30
2022-10-07T13:00:24.477Z,3.30
2022-10-07T13:03:43.741Z,4.30
2022-10-07T13:07:30.942Z,3.20
2022-10-07T13:10:32.688Z,2.87
2022-10-07T13:13:06.657Z,3.53
2022-10-07T13:15:43.020Z,3.53
2022-10-07T13:18:21.027Z,4.20
2022-10-07T13:21:13.953Z,7.83
2022-10-07T13:23:52.505Z,4.03
2022-10-07T13:26:23.034Z,3.67
2022-10-07T13:28:53.990Z,3.70
2022-10-07T13:31:25.224Z,3.40
2022-10-07T13:33:55.202Z,4.43
2022-10-07T13:36:26.535Z,3.73
2022-10-07T13:39:13.182Z,4.23
2022-10-07T13:41:45.751Z,3.87
2022-10-07T13:44:18.392Z,3.13
2022-10-07T13:46:55.447Z,3.07
2022-10-07T13:49:28.008Z,3.53
2022-10-07T13:51:59.767Z,3.23
2022-10-07T13:54:32.581Z,3.13
2022-10-07T13:57:02.116Z,3.70
2022-10-07T13:59:36.510Z,3.13
2022-10-07T14:02:05.704Z,3.47
2022-10-07T14:04:35.320Z,3.50
2022-10-07T14:07:17.453Z,3.63
2022-10-07T14:09:49.991Z,3.10
2022-10-07T14:12:22.159Z,3.30
2022-10-07T14:14:53.229Z,3.63
2022-10-07T14:17:32.093Z,2.97
2022-10-07T14:20:05.461Z,3.60
2022-10-07T14:22:39.004Z,3.47
2022-10-07T14:25:19.289Z,3.37
2022-10-07T14:28:17.601Z,3.17
2022-10-07T14:31:05.567Z,4.47
2022-10-07T14:34:04.001Z,2.90
2022-10-07T14:36:32.214Z,4.13
2022-10-07T14:39:03.902Z,4.50
2022-10-07T14:41:33.536Z,3.03
2022-10-07T14:44:04.194Z,3.73
2022-10-07T14:46:32.398Z,3.73
2022-10-07T14:49:00.694Z,3.90
2022-10-07T14:51:29.866Z,4.20
2022-10-07T14:54:02.910Z,4.10
2022-10-07T14:56:38.334Z,4.63
2022-10-07T14:59:10.935Z,3.80
2022-10-07T15:01:39.112Z,3.73
2022-10-07T15:04:07.526Z,3.17
2022-10-07T15:06:37.840Z,2.80
2022-10-07T15:09:06.122Z,4.00
2022-10-07T15:11:35.948Z,3.63
2022-10-07T15:14:04.084Z,3.10
2022-10-07T15:16:32.379Z,3.73
2022-10-07T15:19:02.031Z,4.10
2022-10-07T15:21:30.766Z,3.63
2022-10-07T15:24:01.634Z,4.27
2022-10-07T15:26:31.051Z,4.50
2022-10-07T15:29:01.054Z,4.20
2022-10-07T15:31:30.496Z,3.70
2022-10-07T15:33:58.966Z,4.20
2022-10-07T15:36:29.591Z,3.93
2022-10-07T15:39:01.995Z,4.13
2022-10-07T15:41:34.121Z,4.93
2022-10-07T15:44:05.619Z,4.30
2022-10-07T15:46:33.990Z,5.93
2022-10-07T15:49:03.477Z,4.83
2022-10-07T15:51:31.884Z,4.00
2022-10-07T15:54:00.104Z,4.40
2022-10-07T15:56:28.399Z,3.60
2022-10-07T15:58:58.455Z,3.80
2022-10-07T16:01:29.414Z,3.83
2022-10-07T16:03:57.499Z,3.83
2022-10-07T16:06:27.767Z,3.30
2022-10-07T16:08:57.882Z,3.47
2022-10-07T16:11:26.803Z,3.50
2022-10-07T16:13:55.504Z,3.70
2022-10-07T16:16:27.327Z,3.67
2022-10-07T16:18:58.414Z,3.30
2022-10-07T16:21:30.084Z,4.17
2022-10-07T16:24:02.913Z,4.10
2022-10-07T16:26:33.752Z,3.40
2022-10-07T16:29:21.365Z,3.80
2022-10-07T16:31:55.922Z,4.03
2022-10-07T16:34:26.565Z,4.47
2022-10-07T16:36:54.747Z,4.33
2022-10-07T16:39:23.271Z,3.27
2022-10-07T16:41:52.383Z,3.83
2022-10-07T16:44:22.138Z,4.30
2022-10-07T16:46:56.397Z,4.53
2022-10-07T16:49:26.242Z,4.00
2022-10-07T16:51:54.767Z,4.10
2022-10-07T16:54:23.545Z,3.53
2022-10-07T16:56:53.249Z,3.53
2022-10-07T16:59:24.612Z,4.57
2022-10-07T17:01:56.481Z,6.33
2022-10-07T17:04:25.768Z,5.20
2022-10-07T17:06:54.356Z,5.00
2022-10-07T17:09:24.462Z,4.90
2022-10-07T17:11:52.906Z,5.70
2022-10-07T17:14:22.805Z,4.37
2022-10-07T17:16:56.150Z,4.13
2022-10-07T17:19:26.458Z,5.17
2022-10-07T17:21:56.464Z,4.23
2022-10-07T17:24:25.269Z,4.63
2022-10-07T17:26:54.094Z,5.37
2022-10-07T17:29:25.815Z,4.60
2022-10-07T17:31:56.365Z,15.83
2022-10-07T17:34:24.471Z,12.03
2022-10-07T17:36:52.919Z,10.40
2022-10-07T17:39:21.398Z,9.33
2022-10-07T17:41:49.682Z,7.33
2022-10-07T17:44:18.467Z,7.40
2022-10-07T17:46:48.827Z,6.20
2022-10-07T17:49:18.328Z,8.00
2022-10-07T17:51:46.458Z,5.93
2022-10-07T17:54:15.260Z,4.80
2022-10-07T17:56:47.590Z,4.13
2022-10-07T17:59:15.962Z,6.93
2022-10-07T18:01:44.944Z,4.47
2022-10-07T18:04:18.848Z,5.73
2022-10-07T18:06:50.617Z,5.80
2022-10-07T18:09:19.375Z,5.33
2022-10-07T18:12:05.174Z,5.77
2022-10-07T18:15:02.429Z,5.67
2022-10-07T18:17:30.544Z,5.30
2022-10-07T18:20:00.087Z,6.20
2022-10-07T18:22:29.562Z,6.47
2022-10-07T18:24:58.399Z,5.70
2022-10-07T18:27:27.224Z,4.93
2022-10-07T18:29:55.513Z,5.00
2022-10-07T18:32:24.545Z,6.60
2022-10-07T18:34:52.607Z,6.07
2022-10-07T18:37:20.749Z,7.90
2022-10-07T18:39:50.433Z,7.90
2022-10-07T18:42:18.774Z,6.97
2022-10-07T18:44:47.226Z,6.63
2022-10-07T18:47:15.337Z,6.57
2022-10-07T18:49:43.437Z,6.47
2022-10-07T18:52:11.975Z,6.47
2022-10-07T18:54:40.087Z,21.50
2022-10-07T18:57:09.554Z,22.47
2022-10-07T18:59:37.654Z,11.70
2022-10-07T19:02:05.816Z,7.80
2022-10-07T19:04:34.015Z,6.83
2022-10-07T19:07:03.198Z,48.17
2022-10-07T19:09:31.533Z,19.60
2022-10-07T19:11:59.684Z,10.20
2022-10-07T19:14:31.040Z,8.27
2022-10-07T19:16:59.245Z,7.60
2022-10-07T19:19:27.325Z,7.93
2022-10-07T19:21:57.442Z,8.90
2022-10-07T19:24:45.507Z,7.40
2022-10-07T19:27:14.193Z,8.33
2022-10-07T19:29:43.906Z,6.00
2022-10-07T19:32:12.054Z,6.23
2022-10-07T19:34:40.127Z,7.30
2022-10-07T19:37:08.225Z,6.13
2022-10-07T19:39:36.851Z,6.63
2022-10-07T19:42:05.387Z,8.27
2022-10-07T19:44:33.449Z,8.50
2022-10-07T19:47:03.208Z,8.37
2022-10-07T19:49:31.605Z,7.83
2022-10-07T19:51:59.672Z,8.30
2022-10-07T19:54:28.291Z,6.97
2022-10-07T19:56:56.478Z,7.80
2022-10-07T19:59:25.147Z,8.53
2022-10-07T20:01:54.943Z,7.83
2022-10-07T20:04:27.203Z,7.60
2022-10-07T20:06:56.403Z,7.80
2022-10-07T20:09:24.615Z,9.00
2022-10-07T20:11:52.888Z,8.23
2022-10-07T20:14:20.951Z,7.30
2022-10-07T20:16:49.102Z,7.83
2022-10-07T20:19:18.730Z,8.33
2022-10-07T20:21:48.439Z,8.03
2022-10-07T20:24:17.775Z,7.77
2022-10-07T20:26:46.232Z,7.50
2022-10-07T20:29:16.365Z,7.93
2022-10-07T20:31:45.689Z,10.70
2022-10-07T20:34:16.522Z,8.30
2022-10-07T20:36:45.199Z,7.97
2022-10-07T20:39:36.761Z,7.13
2022-10-07T20:42:25.598Z,7.03
2022-10-07T20:44:54.636Z,7.77
2022-10-07T20:47:24.006Z,7.87
2022-10-07T20:49:52.186Z,7.70
2022-10-07T20:52:22.908Z,8.23
2022-10-07T20:54:53.969Z,9.50
2022-10-07T20:57:24.072Z,8.50
2022-10-07T20:59:52.692Z,8.70
2022-10-07T21:02:23.699Z,8.13
2022-10-07T21:04:52.241Z,7.20
2022-10-07T21:07:20.808Z,7.23
2022-10-07T21:09:49.125Z,6.60
2022-10-07T21:12:19.361Z,6.20
2022-10-07T21:14:48.467Z,7.87
2022-10-07T21:17:17.195Z,7.17
2022-10-07T21:19:45.675Z,7.13
2022-10-07T21:22:13.811Z,6.87
2022-10-07T21:24:45.154Z,6.40
2022-10-07T21:27:13.361Z,6.23
2022-10-07T21:29:46.782Z,6.73
2022-10-07T21:32:16.627Z,7.60
2022-10-07T21:34:44.718Z,6.90
2022-10-07T21:37:12.763Z,6.90
2022-10-07T21:39:40.811Z,6.50
2022-10-07T21:42:08.944Z,6.33
2022-10-07T21:44:37.102Z,6.70
2022-10-07T21:47:06.533Z,6.13
2022-10-07T21:49:34.729Z,6.40
2022-10-07T21:52:03.013Z,7.50
2022-10-07T21:54:31.223Z,7.17
2022-10-07T21:56:59.361Z,5.97
2022-10-07T21:59:27.418Z,6.97
2022-10-07T22:01:55.628Z,6.63
2022-10-07T22:04:25.358Z,7.23
2022-10-07T22:07:10.954Z,8.27
2022-10-07T22:09:39.027Z,7.20
2022-10-07T22:12:07.899Z,7.90
2022-10-07T22:14:36.064Z,8.10
2022-10-07T22:17:04.310Z,7.00
2022-10-07T22:19:33.727Z,6.60
2022-10-07T22:22:02.140Z,7.83
2022-10-07T22:24:30.871Z,6.33
2022-10-07T22:27:00.123Z,6.20
2022-10-07T22:29:29.608Z,6.53
2022-10-07T22:31:57.866Z,5.63
2022-10-07T22:34:43.768Z,6.70
2022-10-07T22:37:13.198Z,6.70
2022-10-07T22:39:41.377Z,7.63
2022-10-07T22:42:09.613Z,8.03
2022-10-07T22:44:37.693Z,8.67
2022-10-07T22:47:05.861Z,8.40
2022-10-07T22:49:33.933Z,8.00
2022-10-07T22:52:02.026Z,7.20
2022-10-07T22:54:31.448Z,7.30
2022-10-07T22:56:59.796Z,7.00
2022-10-07T22:59:27.884Z,6.90
2022-10-07T23:01:56.033Z,7.93
2022-10-07T23:04:24.079Z,7.27
2022-10-07T23:06:52.879Z,7.80
2022-10-07T23:09:21.640Z,6.90
2022-10-07T23:11:51.188Z,6.57
2022-10-07T23:14:19.282Z,7.10
2022-10-07T23:16:47.363Z,6.73
2022-10-07T23:19:15.506Z,7.00
2022-10-07T23:21:44.471Z,7.90
2022-10-07T23:24:15.285Z,7.17
2022-10-07T23:26:45.984Z,6.47
2022-10-07T23:29:15.615Z,7.50
2022-10-07T23:31:44.758Z,8.00
2022-10-07T23:34:13.786Z,7.80
2022-10-07T23:36:41.921Z,7.43
2022-10-07T23:39:10.084Z,7.30
2022-10-07T23:41:38.153Z,7.20
2022-10-07T23:44:06.440Z,7.23
2022-10-07T23:46:36.644Z,7.90
2022-10-07T23:49:05.298Z,6.93
2022-10-07T23:51:34.310Z,7.40
2022-10-07T23:54:04.561Z,6.40
2022-10-07T23:56:33.321Z,7.17
2022-10-07T23:59:02.284Z,7.27
